This is the latest recevied weather packets stored in our database for station/object OE-11140. If no packets are shown the sender has not sent any weather packets the latest 10 day(s).
| Time | Temp. | Humidity | Pressure | Rain* | Wind** | Luminosity | Snow |
|---|---|---|---|---|---|---|---|
| 1787888716 | 18.89° C | 73% | 1012.3 hPa | 0 mm | - | 0 W/m² | - |
| 1787888116 | 18.89° C | 75% | 1012.4 hPa | 0 mm | - | 0 W/m² | - |
| 1787887516 | 19.44° C | 72% | 1012.3 hPa | 0 mm | - | 0 W/m² | - |
| 1787886688 | 19.44° C | 71% | 1012.2 hPa | 0 mm | - | 0 W/m² | - |
| 1787886315 | 19.44° C | 72% | 1012.3 hPa | 0 mm | - | 0 W/m² | - |
| 1787885717 | 20° C | 70% | 1012.2 hPa | 0 mm | - | 0 W/m² | - |
| 1787884889 | 20° C | 70% | 1012.1 hPa | 0 mm | - | 0 W/m² | - |
| 1787884516 | 19.44° C | 71% | 1012.3 hPa | 0 mm | - | 0 W/m² | - |
| 1787883916 | 20.56° C | 68% | 1012 hPa | 0 mm | - | 0 W/m² | - |
| 1787883089 | 20° C | 71% | 1012.2 hPa | 0 mm | - | 0 W/m² | - |
| 1787882716 | 19.44° C | 73% | 1012.3 hPa | 0 mm | - | 0 W/m² | - |
| 1787882113 | 20° C | 71% | 1012.1 hPa | 0 mm | - | 0 W/m² | - |
| 1787881289 | 20° C | 71% | 1012.2 hPa | 0 mm | - | 0 W/m² | - |
| 1787880916 | 20.56° C | 69% | 1012.1 hPa | 0 mm | - | 0 W/m² | - |
| 1787880316 | 20° C | 70% | 1012.1 hPa | 0 mm | - | 0 W/m² | - |
| 1787879488 | 20° C | 72% | 1012.1 hPa | 0 mm | - | 0 W/m² | - |
| 1787879116 | 20° C | 70% | 1012 hPa | 0 mm | - | 0 W/m² | - |
| 1787878516 | 20° C | 72% | 1012.1 hPa | 0 mm | - | 0 W/m² | - |
| 1787877688 | 20.56° C | 69% | 1012 hPa | 0 mm | - | 0 W/m² | - |
| 1787877316 | 20.56° C | 70% | 1012 hPa | 0 mm | - | 0 W/m² | - |
| 1787876717 | 20.56° C | 69% | 1012 hPa | 0 mm | - | 0 W/m² | - |
| 1787875889 | 20.56° C | 71% | 1012.1 hPa | 0 mm | - | 0 W/m² | - |
| 1787875516 | 20.56° C | 70% | 1011.9 hPa | 0 mm | - | 0 W/m² | - |
* Rain latest hour (hover to see other rain measurements)
** Current wind speed in m/s (hover to see current wind gust speed)